Simcha — PE7688 — position and weather

sailwx.info

Track history (hours):
 
Tides and Currents Weather Stations Pressure Air Temp Water Temp Dewpoint Dewpoint Depression Visibility Wind Speed Wind Dir Waves Ship Positions

Simcha

Last reported at 2018-Apr-21 18:01 UTC. Time now 2018-Apr-23 19:32 UTC.
Position N 51°53' E 006°02'.

Length 110 m.

MMSI: 244780014.

Date/timePositionNaut miles runAvg speedWind from/ knotsBaromVisibWave heightAir tempDewpointWater temp
2018-Apr-21 18:01N 51°53' E 006°02'1 7.6
2018-Apr-21 17:56N 51°52' E 006°02'3 8.2
2018-Apr-21 17:30N 51°51' E 006°08'17 7.2
2018-Apr-21 15:12N 51°41' E 006°28'2 7.6
2018-Apr-21 14:58N 51°40' E 006°31'4 7.7
2018-Apr-21 14:30N 51°39' E 006°36'4 8.1
2018-Apr-21 14:00N 51°34' E 006°36'5 5.8
2018-Apr-21 13:10N 51°31' E 006°42'2 7.3
2018-Apr-21 12:56N 51°30' E 006°43'2 4.1
2018-Apr-21 12:30N 51°28' E 006°43'4 7.6
2018-Apr-21 12:00N 51°25' E 006°45'7 5.6
2018-Apr-21 10:46N 51°18' E 006°43'2 7.6
2018-Apr-21 10:30N 51°16' E 006°43'3 5.0
2018-Apr-21 10:00N 51°13' E 006°45'3 5.3
2018-Apr-21 09:30N 51°11' E 006°45'3 6.1
2018-Apr-21 09:00N 51°09' E 006°48'2 3.7
2018-Apr-21 08:30N 51°08' E 006°51'3 6.6
2018-Apr-21 08:00N 51°05' E 006°51'4 9.0
2018-Apr-21 07:30N 51°02' E 006°57'4 7.3
2018-Apr-21 07:00N 50°59' E 006°60'4 7.5
2018-Apr-21 06:30N 50°55' E 006°58'4 7.7
2018-Apr-21 06:00N 50°53' E 007°03'4 7.9
2018-Apr-21 05:30N 50°50' E 006°59'4 7.8
2018-Apr-21 05:00N 50°47' E 007°03'2 3.1
2018-Apr-21 04:30N 50°46' E 007°05'0 0.0
2018-Apr-21 04:00N 50°46' E 007°05'0 0.0
2018-Apr-21 03:30N 50°46' E 007°05'0 0.0
2018-Apr-21 03:00N 50°46' E 007°05'0 0.0
2018-Apr-21 02:30N 50°46' E 007°05'0 0.0
2018-Apr-21 02:00N 50°46' E 007°05'0 0.0
2018-Apr-21 01:30N 50°46' E 007°05'0 0.0
2018-Apr-21 01:00N 50°46' E 007°05'0 0.0
2018-Apr-21 00:30N 50°46' E 007°05'0 0.0
2018-Apr-20 23:59N 50°46' E 007°05'0 0.0
2018-Apr-20 23:30N 50°46' E 007°05'0 0.0
2018-Apr-20 22:59N 50°46' E 007°05'0 0.0
2018-Apr-20 22:27N 50°46' E 007°05'0 0.0
2018-Apr-20 21:56N 50°46' E 007°05'0 0.0
2018-Apr-20 18:01N 50°46' E 007°05'0 0.0
2018-Apr-20 17:43N 50°46' E 007°05'0 0.0
2018-Apr-20 17:28N 50°46' E 007°05'0 0.0
2018-Apr-20 17:00N 50°46' E 007°05'3 5.1
2018-Apr-20 16:30N 50°44' E 007°07'4 8.2
2018-Apr-20 16:00N 50°41' E 007°11'  
2018-Apr-12 10:12N 50°35' E 007°14'1 5.0
2018-Apr-12 09:57N 50°36' E 007°13'3 5.9
2018-Apr-12 09:30N 50°39' E 007°13'2 4.8
2018-Apr-12 09:00N 50°41' E 007°11'3 5.0
2018-Apr-12 08:30N 50°43' E 007°09'2 4.9
2018-Apr-12 08:00N 50°45' E 007°06'3 5.1
2018-Apr-12 07:30N 50°47' E 007°03'2 4.7
2018-Apr-12 07:00N 50°49' E 007°02'2 4.6
2018-Apr-12 06:30N 50°50' E 006°59'2 4.6
2018-Apr-12 06:00N 50°52' E 007°01'2 4.0
2018-Apr-12 05:30N 50°54' E 007°03'2 4.5
2018-Apr-12 05:00N 50°54' E 006°59'3 5.4
2018-Apr-12 04:30N 50°57' E 006°58'2 4.7
2018-Apr-12 04:00N 50°59' E 006°59'2 4.5
2018-Apr-12 03:30N 51°01' E 006°58'2 4.9
2018-Apr-12 03:00N 51°03' E 006°56'0 0.4
2018-Apr-12 02:30N 51°03' E 006°56'0 0.0
2018-Apr-12 02:00N 51°03' E 006°56'0 0.0
2018-Apr-12 01:30N 51°03' E 006°56'0 0.0
2018-Apr-12 01:00N 51°03' E 006°56'0 0.0
2018-Apr-12 00:30N 51°03' E 006°56'0 0.0
2018-Apr-12 00:00N 51°03' E 006°56'0 0.0
2018-Apr-11 23:30N 51°03' E 006°56'0 0.0
2018-Apr-11 23:00N 51°03' E 006°56'0 0.0
2018-Apr-11 22:30N 51°03' E 006°56'0 0.0
2018-Apr-11 22:00N 51°03' E 006°56'0 0.0
2018-Apr-11 21:30N 51°03' E 006°56'0 0.0
2018-Apr-11 21:00N 51°03' E 006°56'0 0.0
2018-Apr-11 20:30N 51°03' E 006°56'2 3.9
2018-Apr-11 20:00N 51°04' E 006°53'2 3.1
2018-Apr-11 19:30N 51°05' E 006°52'2 3.4
2018-Apr-11 19:00N 51°07' E 006°52'2 4.1
2018-Apr-11 18:30N 51°09' E 006°51'  
Track history (hours):
 
Tides and Currents Weather Stations Pressure Air Temp Water Temp Dewpoint Dewpoint Depression Visibility Wind Speed Wind Dir Waves Ship Positions

Simcha

Last reported at 2018-Apr-21 18:01 UTC. Time now 2018-Apr-23 19:32 UTC.
Position N 51°53' E 006°02'.

Length 110 m.

MMSI: 244780014.

Date/timePositionNaut miles runAvg speedWind from/ knotsBaromVisibWave heightAir tempDewpointWater temp
2018-Apr-21 18:01N 51°53' E 006°02'1 7.6
2018-Apr-21 17:56N 51°52' E 006°02'3 8.2
2018-Apr-21 17:30N 51°51' E 006°08'17 7.2
2018-Apr-21 15:12N 51°41' E 006°28'2 7.6
2018-Apr-21 14:58N 51°40' E 006°31'4 7.7
2018-Apr-21 14:30N 51°39' E 006°36'4 8.1
2018-Apr-21 14:00N 51°34' E 006°36'5 5.8
2018-Apr-21 13:10N 51°31' E 006°42'2 7.3
2018-Apr-21 12:56N 51°30' E 006°43'2 4.1
2018-Apr-21 12:30N 51°28' E 006°43'4 7.6
2018-Apr-21 12:00N 51°25' E 006°45'7 5.6
2018-Apr-21 10:46N 51°18' E 006°43'2 7.6
2018-Apr-21 10:30N 51°16' E 006°43'3 5.0
2018-Apr-21 10:00N 51°13' E 006°45'3 5.3
2018-Apr-21 09:30N 51°11' E 006°45'3 6.1
2018-Apr-21 09:00N 51°09' E 006°48'2 3.7
2018-Apr-21 08:30N 51°08' E 006°51'3 6.6
2018-Apr-21 08:00N 51°05' E 006°51'4 9.0
2018-Apr-21 07:30N 51°02' E 006°57'4 7.3
2018-Apr-21 07:00N 50°59' E 006°60'4 7.5
2018-Apr-21 06:30N 50°55' E 006°58'4 7.7
2018-Apr-21 06:00N 50°53' E 007°03'4 7.9
2018-Apr-21 05:30N 50°50' E 006°59'4 7.8
2018-Apr-21 05:00N 50°47' E 007°03'2 3.1
2018-Apr-21 04:30N 50°46' E 007°05'0 0.0
2018-Apr-21 04:00N 50°46' E 007°05'0 0.0
2018-Apr-21 03:30N 50°46' E 007°05'0 0.0
2018-Apr-21 03:00N 50°46' E 007°05'0 0.0
2018-Apr-21 02:30N 50°46' E 007°05'0 0.0
2018-Apr-21 02:00N 50°46' E 007°05'0 0.0
2018-Apr-21 01:30N 50°46' E 007°05'0 0.0
2018-Apr-21 01:00N 50°46' E 007°05'0 0.0
2018-Apr-21 00:30N 50°46' E 007°05'0 0.0
2018-Apr-20 23:59N 50°46' E 007°05'0 0.0
2018-Apr-20 23:30N 50°46' E 007°05'0 0.0
2018-Apr-20 22:59N 50°46' E 007°05'0 0.0
2018-Apr-20 22:27N 50°46' E 007°05'0 0.0
2018-Apr-20 21:56N 50°46' E 007°05'0 0.0
2018-Apr-20 18:01N 50°46' E 007°05'0 0.0
2018-Apr-20 17:43N 50°46' E 007°05'0 0.0
2018-Apr-20 17:28N 50°46' E 007°05'0 0.0
2018-Apr-20 17:00N 50°46' E 007°05'3 5.1
2018-Apr-20 16:30N 50°44' E 007°07'4 8.2
2018-Apr-20 16:00N 50°41' E 007°11'  
2018-Apr-12 10:12N 50°35' E 007°14'1 5.0
2018-Apr-12 09:57N 50°36' E 007°13'3 5.9
2018-Apr-12 09:30N 50°39' E 007°13'2 4.8
2018-Apr-12 09:00N 50°41' E 007°11'3 5.0
2018-Apr-12 08:30N 50°43' E 007°09'2 4.9
2018-Apr-12 08:00N 50°45' E 007°06'3 5.1
2018-Apr-12 07:30N 50°47' E 007°03'2 4.7
2018-Apr-12 07:00N 50°49' E 007°02'2 4.6
2018-Apr-12 06:30N 50°50' E 006°59'2 4.6
2018-Apr-12 06:00N 50°52' E 007°01'2 4.0
2018-Apr-12 05:30N 50°54' E 007°03'2 4.5
2018-Apr-12 05:00N 50°54' E 006°59'3 5.4
2018-Apr-12 04:30N 50°57' E 006°58'2 4.7
2018-Apr-12 04:00N 50°59' E 006°59'2 4.5
2018-Apr-12 03:30N 51°01' E 006°58'2 4.9
2018-Apr-12 03:00N 51°03' E 006°56'0 0.4
2018-Apr-12 02:30N 51°03' E 006°56'0 0.0
2018-Apr-12 02:00N 51°03' E 006°56'0 0.0
2018-Apr-12 01:30N 51°03' E 006°56'0 0.0
2018-Apr-12 01:00N 51°03' E 006°56'0 0.0
2018-Apr-12 00:30N 51°03' E 006°56'0 0.0
2018-Apr-12 00:00N 51°03' E 006°56'0 0.0
2018-Apr-11 23:30N 51°03' E 006°56'0 0.0
2018-Apr-11 23:00N 51°03' E 006°56'0 0.0
2018-Apr-11 22:30N 51°03' E 006°56'0 0.0
2018-Apr-11 22:00N 51°03' E 006°56'0 0.0
2018-Apr-11 21:30N 51°03' E 006°56'0 0.0
2018-Apr-11 21:00N 51°03' E 006°56'0 0.0
2018-Apr-11 20:30N 51°03' E 006°56'2 3.9
2018-Apr-11 20:00N 51°04' E 006°53'2 3.1
2018-Apr-11 19:30N 51°05' E 006°52'2 3.4
2018-Apr-11 19:00N 51°07' E 006°52'2 4.1
2018-Apr-11 18:30N 51°09' E 006°51'  

Dump ship's entire track history